sensor_id;sensor_type;location;lat;lon;timestamp;pressure;altitude;pressure_sealevel;temperature;humidity
67099;BME280;54288;53.046;5.668;2023-01-25T00:00:21;103977.38;;;0.53;100.00
67099;BME280;54288;53.046;5.668;2023-01-25T00:02:46;103975.66;;;0.53;100.00
67099;BME280;54288;53.046;5.668;2023-01-25T00:05:12;103968.94;;;0.55;100.00
67099;BME280;54288;53.046;5.668;2023-01-25T00:07:37;103971.66;;;0.57;100.00
67099;BME280;54288;53.046;5.668;2023-01-25T00:10:03;103960.53;;;0.58;100.00
67099;BME280;54288;53.046;5.668;2023-01-25T00:12:29;103958.94;;;0.60;100.00
67099;BME280;54288;53.046;5.668;2023-01-25T00:14:54;103955.56;;;0.61;100.00
67099;BME280;54288;53.046;5.668;2023-01-25T00:17:20;103955.56;;;0.61;100.00
67099;BME280;54288;53.046;5.668;2023-01-25T00:19:45;103959.94;;;0.62;100.00
67099;BME280;54288;53.046;5.668;2023-01-25T00:22:11;103957.59;;;0.65;100.00
67099;BME280;54288;53.046;5.668;2023-01-25T00:24:36;103945.25;;;0.61;100.00
67099;BME280;54288;53.046;5.668;2023-01-25T00:27:02;103936.72;;;0.62;100.00
67099;BME280;54288;53.046;5.668;2023-01-25T00:29:30;103935.28;;;0.65;100.00
67099;BME280;54288;53.046;5.668;2023-01-25T00:37:12;103927.81;;;0.57;100.00
67099;BME280;54288;53.046;5.668;2023-01-25T00:39:39;103923.53;;;0.57;100.00
67099;BME280;54288;53.046;5.668;2023-01-25T00:42:09;103914.59;;;0.52;100.00
67099;BME280;54288;53.046;5.668;2023-01-25T00:44:35;103912.91;;;0.53;100.00
67099;BME280;54288;53.046;5.668;2023-01-25T00:47:00;103905.19;;;0.53;100.00
67099;BME280;54288;53.046;5.668;2023-01-25T00:49:26;103912.13;;;0.54;100.00
67099;BME280;54288;53.046;5.668;2023-01-25T00:51:53;103906.28;;;0.56;100.00
67099;BME280;54288;53.046;5.668;2023-01-25T00:54:20;103906.47;;;0.59;100.00
67099;BME280;54288;53.046;5.668;2023-01-25T00:56:45;103900.72;;;0.50;100.00
67099;BME280;54288;53.046;5.668;2023-01-25T00:59:12;103891.75;;;0.45;100.00
67099;BME280;54288;53.046;5.668;2023-01-25T01:01:42;103901.66;;;0.39;100.00
67099;BME280;54288;53.046;5.668;2023-01-25T01:04:08;103903.44;;;0.40;100.00
67099;BME280;54288;53.046;5.668;2023-01-25T01:06:37;103895.41;;;0.36;100.00
67099;BME280;54288;53.046;5.668;2023-01-25T01:09:05;103891.72;;;0.32;100.00
67099;BME280;54288;53.046;5.668;2023-01-25T01:11:32;103887.78;;;0.37;100.00
67099;BME280;54288;53.046;5.668;2023-01-25T01:13:58;103889.75;;;0.41;100.00
67099;BME280;54288;53.046;5.668;2023-01-25T01:16:24;103888.66;;;0.38;100.00
67099;BME280;54288;53.046;5.668;2023-01-25T01:18:51;103885.19;;;0.37;100.00
67099;BME280;54288;53.046;5.668;2023-01-25T01:21:17;103888.97;;;0.42;100.00
67099;BME280;54288;53.046;5.668;2023-01-25T01:23:43;103885.63;;;0.43;100.00
67099;BME280;54288;53.046;5.668;2023-01-25T01:26:12;103895.69;;;0.40;100.00
67099;BME280;54288;53.046;5.668;2023-01-25T01:28:38;103884.59;;;0.41;100.00
67099;BME280;54288;53.046;5.668;2023-01-25T01:31:06;103894.03;;;0.41;100.00
67099;BME280;54288;53.046;5.668;2023-01-25T01:33:36;103890.44;;;0.39;100.00
67099;BME280;54288;53.046;5.668;2023-01-25T01:36:14;103882.19;;;0.31;100.00
67099;BME280;54288;53.046;5.668;2023-01-25T01:38:41;103891.50;;;0.29;100.00
67099;BME280;54288;53.046;5.668;2023-01-25T01:41:06;103881.97;;;0.28;100.00
67099;BME280;54288;53.046;5.668;2023-01-25T01:43:33;103873.34;;;0.28;100.00
67099;BME280;54288;53.046;5.668;2023-01-25T01:51:25;103884.78;;;0.31;100.00
67099;BME280;54288;53.046;5.668;2023-01-25T01:54:04;103879.50;;;0.30;100.00
67099;BME280;54288;53.046;5.668;2023-01-25T01:56:49;103886.81;;;0.24;100.00
67099;BME280;54288;53.046;5.668;2023-01-25T01:59:17;103879.78;;;0.21;100.00
67099;BME280;54288;53.046;5.668;2023-01-25T02:01:44;103881.25;;;0.18;100.00
67099;BME280;54288;53.046;5.668;2023-01-25T02:04:12;103876.84;;;0.17;100.00
67099;BME280;54288;53.046;5.668;2023-01-25T02:06:48;103871.69;;;0.17;100.00
67099;BME280;54288;53.046;5.668;2023-01-25T02:09:20;103883.22;;;0.22;100.00
67099;BME280;54288;53.046;5.668;2023-01-25T02:11:47;103873.72;;;0.21;100.00
67099;BME280;54288;53.046;5.668;2023-01-25T02:14:16;103873.13;;;0.25;100.00
67099;BME280;54288;53.046;5.668;2023-01-25T02:16:42;103865.28;;;0.23;100.00
67099;BME280;54288;53.046;5.668;2023-01-25T02:19:15;103871.56;;;0.27;100.00
67099;BME280;54288;53.046;5.668;2023-01-25T02:21:46;103871.66;;;0.28;100.00
67099;BME280;54288;53.046;5.668;2023-01-25T02:24:22;103868.19;;;0.28;100.00
67099;BME280;54288;53.046;5.668;2023-01-25T02:26:51;103863.13;;;0.29;100.00
67099;BME280;54288;53.046;5.668;2023-01-25T02:29:18;103864.34;;;0.34;100.00
67099;BME280;54288;53.046;5.668;2023-01-25T02:31:45;103861.59;;;0.31;100.00
67099;BME280;54288;53.046;5.668;2023-01-25T02:34:11;103856.78;;;0.24;100.00
67099;BME280;54288;53.046;5.668;2023-01-25T02:36:39;103845.16;;;0.18;100.00
67099;BME280;54288;53.046;5.668;2023-01-25T02:39:08;103844.81;;;0.13;100.00
67099;BME280;54288;53.046;5.668;2023-01-25T02:41:39;103845.75;;;0.14;100.00
67099;BME280;54288;53.046;5.668;2023-01-25T02:44:19;103853.78;;;0.18;100.00
67099;BME280;54288;53.046;5.668;2023-01-25T02:46:46;103846.72;;;0.16;100.00
67099;BME280;54288;53.046;5.668;2023-01-25T02:49:12;103845.47;;;0.22;100.00
67099;BME280;54288;53.046;5.668;2023-01-25T02:51:45;103844.78;;;0.25;100.00
67099;BME280;54288;53.046;5.668;2023-01-25T02:54:14;103846.94;;;0.19;100.00
67099;BME280;54288;53.046;5.668;2023-01-25T02:56:41;103842.69;;;0.19;100.00
67099;BME280;54288;53.046;5.668;2023-01-25T02:59:08;103843.00;;;0.24;100.00
67099;BME280;54288;53.046;5.668;2023-01-25T03:01:39;103839.41;;;0.22;100.00
67099;BME280;54288;53.046;5.668;2023-01-25T03:04:06;103835.16;;;0.22;100.00
67099;BME280;54288;53.046;5.668;2023-01-25T03:06:33;103839.34;;;0.20;100.00
67099;BME280;54288;53.046;5.668;2023-01-25T03:09:01;103831.25;;;0.16;100.00
67099;BME280;54288;53.046;5.668;2023-01-25T03:11:27;103824.34;;;0.15;100.00
67099;BME280;54288;53.046;5.668;2023-01-25T03:13:53;103825.81;;;0.11;100.00
67099;BME280;54288;53.046;5.668;2023-01-25T03:16:19;103815.50;;;0.11;100.00
67099;BME280;54288;53.046;5.668;2023-01-25T03:18:45;103814.72;;;0.12;100.00
67099;BME280;54288;53.046;5.668;2023-01-25T03:21:16;103811.69;;;0.18;100.00
67099;BME280;54288;53.046;5.668;2023-01-25T03:23:45;103813.16;;;0.14;100.00
67099;BME280;54288;53.046;5.668;2023-01-25T03:26:20;103809.25;;;0.08;100.00
67099;BME280;54288;53.046;5.668;2023-01-25T03:29:09;103804.22;;;0.09;100.00
67099;BME280;54288;53.046;5.668;2023-01-25T03:31:38;103803.19;;;0.07;100.00
67099;BME280;54288;53.046;5.668;2023-01-25T03:34:03;103801.41;;;0.06;100.00
67099;BME280;54288;53.046;5.668;2023-01-25T03:36:34;103800.53;;;0.06;100.00
67099;BME280;54288;53.046;5.668;2023-01-25T03:38:59;103800.53;;;0.06;100.00
67099;BME280;54288;53.046;5.668;2023-01-25T03:41:25;103797.84;;;0.04;100.00
67099;BME280;54288;53.046;5.668;2023-01-25T03:43:55;103784.19;;;0.05;100.00
67099;BME280;54288;53.046;5.668;2023-01-25T03:46:21;103792.22;;;0.10;100.00
67099;BME280;54288;53.046;5.668;2023-01-25T03:48:46;103782.41;;;0.04;100.00
67099;BME280;54288;53.046;5.668;2023-01-25T03:51:12;103784.38;;;0.08;100.00
67099;BME280;54288;53.046;5.668;2023-01-25T03:53:38;103793.13;;;0.10;100.00
67099;BME280;54288;53.046;5.668;2023-01-25T03:56:10;103778.22;;;0.06;100.00
67099;BME280;54288;53.046;5.668;2023-01-25T03:58:38;103779.94;;;0.06;100.00
67099;BME280;54288;53.046;5.668;2023-01-25T04:01:06;103771.97;;;0.03;100.00
67099;BME280;54288;53.046;5.668;2023-01-25T04:03:33;103783.53;;;-0.04;100.00
67099;BME280;54288;53.046;5.668;2023-01-25T04:06:00;103781.31;;;-0.11;100.00
67099;BME280;54288;53.046;5.668;2023-01-25T04:08:29;103774.41;;;-0.12;100.00
67099;BME280;54288;53.046;5.668;2023-01-25T04:11:04;103770.34;;;-0.08;100.00
67099;BME280;54288;53.046;5.668;2023-01-25T04:13:31;103769.09;;;-0.02;100.00
67099;BME280;54288;53.046;5.668;2023-01-25T04:15:57;103771.78;;;0.00;100.00
67099;BME280;54288;53.046;5.668;2023-01-25T04:18:55;103762.34;;;0.00;100.00
67099;BME280;54288;53.046;5.668;2023-01-25T04:21:20;103763.34;;;0.02;100.00
67099;BME280;54288;53.046;5.668;2023-01-25T04:23:46;103758.00;;;-0.01;100.00
67099;BME280;54288;53.046;5.668;2023-01-25T04:26:13;103761.97;;;0.07;100.00
67099;BME280;54288;53.046;5.668;2023-01-25T04:28:41;103755.03;;;0.06;100.00
67099;BME280;54288;53.046;5.668;2023-01-25T04:31:07;103752.28;;;0.03;100.00
67099;BME280;54288;53.046;5.668;2023-01-25T04:33:38;103758.41;;;0.05;100.00
67099;BME280;54288;53.046;5.668;2023-01-25T04:36:04;103749.44;;;0.12;100.00
67099;BME280;54288;53.046;5.668;2023-01-25T04:38:29;103738.91;;;0.09;100.00
67099;BME280;54288;53.046;5.668;2023-01-25T04:40:55;103740.00;;;0.12;100.00
67099;BME280;54288;53.046;5.668;2023-01-25T04:43:21;103734.84;;;0.12;100.00
67099;BME280;54288;53.046;5.668;2023-01-25T04:45:51;103735.94;;;0.16;100.00
67099;BME280;54288;53.046;5.668;2023-01-25T04:48:27;103723.97;;;0.16;100.00
67099;BME280;54288;53.046;5.668;2023-01-25T04:50:57;103728.53;;;0.20;100.00
67099;BME280;54288;53.046;5.668;2023-01-25T04:53:23;103725.16;;;0.21;100.00
67099;BME280;54288;53.046;5.668;2023-01-25T04:55:49;103728.72;;;0.23;100.00
67099;BME280;54288;53.046;5.668;2023-01-25T04:58:15;103733.88;;;0.23;100.00
67099;BME280;54288;53.046;5.668;2023-01-25T05:00:42;103734.19;;;0.28;100.00
67099;BME280;54288;53.046;5.668;2023-01-25T05:03:09;103728.16;;;0.27;100.00
67099;BME280;54288;53.046;5.668;2023-01-25T05:05:36;103732.41;;;0.27;100.00
67099;BME280;54288;53.046;5.668;2023-01-25T05:08:07;103741.91;;;0.28;100.00
67099;BME280;54288;53.046;5.668;2023-01-25T05:10:33;103747.56;;;0.22;100.00
67099;BME280;54288;53.046;5.668;2023-01-25T05:13:24;103740.81;;;0.24;100.00
67099;BME280;54288;53.046;5.668;2023-01-25T05:15:58;103731.53;;;0.26;100.00
67099;BME280;54288;53.046;5.668;2023-01-25T05:18:24;103736.28;;;0.33;100.00
67099;BME280;54288;53.046;5.668;2023-01-25T05:20:54;103737.38;;;0.37;100.00
67099;BME280;54288;53.046;5.668;2023-01-25T05:23:22;103729.34;;;0.32;100.00
67099;BME280;54288;53.046;5.668;2023-01-25T05:25:48;103732.13;;;0.35;100.00
67099;BME280;54288;53.046;5.668;2023-01-25T05:28:16;103742.25;;;0.32;100.00
67099;BME280;54288;53.046;5.668;2023-01-25T05:31:04;103737.66;;;0.28;100.00
67099;BME280;54288;53.046;5.668;2023-01-25T05:33:32;103736.56;;;0.25;100.00
67099;BME280;54288;53.046;5.668;2023-01-25T05:35:57;103741.03;;;0.27;100.00
67099;BME280;54288;53.046;5.668;2023-01-25T05:38:28;103745.50;;;0.30;100.00
67099;BME280;54288;53.046;5.668;2023-01-25T05:40:57;103735.78;;;0.26;100.00
67099;BME280;54288;53.046;5.668;2023-01-25T05:43:22;103742.59;;;0.25;100.00
67099;BME280;54288;53.046;5.668;2023-01-25T05:45:51;103744.41;;;0.26;100.00
67099;BME280;54288;53.046;5.668;2023-01-25T05:48:17;103742.59;;;0.25;100.00
67099;BME280;54288;53.046;5.668;2023-01-25T05:50:42;103745.28;;;0.27;100.00
67099;BME280;54288;53.046;5.668;2023-01-25T05:53:13;103736.97;;;0.18;100.00
67099;BME280;54288;53.046;5.668;2023-01-25T05:55:38;103744.19;;;0.23;100.00
67099;BME280;54288;53.046;5.668;2023-01-25T05:58:08;103741.50;;;0.22;100.00
67099;BME280;54288;53.046;5.668;2023-01-25T06:00:34;103736.34;;;0.22;100.00
67099;BME280;54288;53.046;5.668;2023-01-25T06:03:00;103720.13;;;0.23;100.00
67099;BME280;54288;53.046;5.668;2023-01-25T06:05:26;103721.13;;;0.25;100.00
67099;BME280;54288;53.046;5.668;2023-01-25T06:07:53;103721.22;;;0.26;100.00
67099;BME280;54288;53.046;5.668;2023-01-25T06:10:21;103721.00;;;0.23;100.00
67099;BME280;54288;53.046;5.668;2023-01-25T06:12:48;103720.44;;;0.27;100.00
67099;BME280;54288;53.046;5.668;2023-01-25T06:15:14;103719.22;;;0.22;100.00
67099;BME280;54288;53.046;5.668;2023-01-25T06:17:40;103720.81;;;0.20;100.00
67099;BME280;54288;53.046;5.668;2023-01-25T06:20:27;103713.78;;;0.18;100.00
67099;BME280;54288;53.046;5.668;2023-01-25T06:23:10;103719.13;;;0.21;100.00
67099;BME280;54288;53.046;5.668;2023-01-25T06:25:36;103713.09;;;0.20;100.00
67099;BME280;54288;53.046;5.668;2023-01-25T06:28:01;103710.69;;;0.23;100.00
67099;BME280;54288;53.046;5.668;2023-01-25T06:30:27;103716.84;;;0.25;100.00
67099;BME280;54288;53.046;5.668;2023-01-25T06:32:53;103710.91;;;0.26;100.00
67099;BME280;54288;53.046;5.668;2023-01-25T06:35:18;103696.94;;;0.23;100.00
67099;BME280;54288;53.046;5.668;2023-01-25T06:37:44;103695.25;;;0.23;100.00
67099;BME280;54288;53.046;5.668;2023-01-25T06:40:10;103687.03;;;0.29;100.00
67099;BME280;54288;53.046;5.668;2023-01-25T06:42:35;103685.22;;;0.28;100.00
67099;BME280;54288;53.046;5.668;2023-01-25T06:45:01;103684.75;;;0.33;100.00
67099;BME280;54288;53.046;5.668;2023-01-25T06:47:26;103677.81;;;0.32;100.00
67099;BME280;54288;53.046;5.668;2023-01-25T06:49:52;103684.53;;;0.30;100.00
67099;BME280;54288;53.046;5.668;2023-01-25T06:52:17;103683.44;;;0.27;100.00
67099;BME280;54288;53.046;5.668;2023-01-25T06:54:43;103690.31;;;0.26;100.00
67099;BME280;54288;53.046;5.668;2023-01-25T06:57:08;103686.72;;;0.24;100.00
67099;BME280;54288;53.046;5.668;2023-01-25T06:59:34;103690.19;;;0.25;100.00
67099;BME280;54288;53.046;5.668;2023-01-25T07:02:00;103687.72;;;0.26;100.00
67099;BME280;54288;53.046;5.668;2023-01-25T07:04:25;103701.00;;;0.32;100.00
67099;BME280;54288;53.046;5.668;2023-01-25T07:06:51;103690.59;;;0.31;100.00
67099;BME280;54288;53.046;5.668;2023-01-25T07:09:16;103695.75;;;0.31;100.00
67099;BME280;54288;53.046;5.668;2023-01-25T07:11:42;103687.13;;;0.30;100.00
67099;BME280;54288;53.046;5.668;2023-01-25T07:14:07;103687.50;;;0.36;100.00
67099;BME280;54288;53.046;5.668;2023-01-25T07:16:33;103677.03;;;0.33;100.00
67099;BME280;54288;53.046;5.668;2023-01-25T07:18:59;103676.13;;;0.33;100.00
67099;BME280;54288;53.046;5.668;2023-01-25T07:21:24;103680.47;;;0.34;100.00
67099;BME280;54288;53.046;5.668;2023-01-25T07:23:50;103678.22;;;0.38;100.00
67099;BME280;54288;53.046;5.668;2023-01-25T07:26:21;103674.84;;;0.39;100.00
67099;BME280;54288;53.046;5.668;2023-01-25T07:28:47;103687.91;;;0.42;100.00
67099;BME280;54288;53.046;5.668;2023-01-25T07:31:15;103681.88;;;0.42;100.00
67099;BME280;54288;53.046;5.668;2023-01-25T07:33:41;103679.50;;;0.45;100.00
67099;BME280;54288;53.046;5.668;2023-01-25T07:36:08;103682.56;;;0.39;100.00
67099;BME280;54288;53.046;5.668;2023-01-25T07:38:35;103667.13;;;0.39;100.00
67099;BME280;54288;53.046;5.668;2023-01-25T07:41:01;103661.66;;;0.35;100.00
67099;BME280;54288;53.046;5.668;2023-01-25T07:43:27;103651.03;;;0.30;100.00
67099;BME280;54288;53.046;5.668;2023-01-25T07:45:52;103650.84;;;0.27;100.00
67099;BME280;54288;53.046;5.668;2023-01-25T07:48:19;103653.63;;;0.30;100.00
67099;BME280;54288;53.046;5.668;2023-01-25T07:50:45;103644.91;;;0.28;100.00
67099;BME280;54288;53.046;5.668;2023-01-25T07:53:15;103662.34;;;0.32;100.00
67099;BME280;54288;53.046;5.668;2023-01-25T07:55:41;103653.63;;;0.30;100.00
67099;BME280;54288;53.046;5.668;2023-01-25T07:58:09;103647.88;;;0.34;100.00
67099;BME280;54288;53.046;5.668;2023-01-25T08:00:35;103643.63;;;0.35;100.00
67099;BME280;54288;53.046;5.668;2023-01-25T08:03:01;103636.47;;;0.31;100.00
67099;BME280;54288;53.046;5.668;2023-01-25T08:05:26;103641.13;;;0.36;100.00
67099;BME280;54288;53.046;5.668;2023-01-25T08:07:52;103637.56;;;0.34;100.00
67099;BME280;54288;53.046;5.668;2023-01-25T08:10:18;103631.03;;;0.26;100.00
67099;BME280;54288;53.046;5.668;2023-01-25T08:12:44;103633.69;;;0.28;100.00
67099;BME280;54288;53.046;5.668;2023-01-25T08:15:11;103627.94;;;0.32;100.00
67099;BME280;54288;53.046;5.668;2023-01-25T08:17:37;103618.34;;;0.29;100.00
67099;BME280;54288;53.046;5.668;2023-01-25T08:20:03;103621.13;;;0.32;100.00
67099;BME280;54288;53.046;5.668;2023-01-25T08:22:28;103616.16;;;0.35;100.00
67099;BME280;54288;53.046;5.668;2023-01-25T08:24:54;103602.28;;;0.33;100.00
67099;BME280;54288;53.046;5.668;2023-01-25T08:27:19;103600.19;;;0.28;100.00
67099;BME280;54288;53.046;5.668;2023-01-25T08:29:45;103607.91;;;0.28;100.00
67099;BME280;54288;53.046;5.668;2023-01-25T08:32:11;103613.47;;;0.34;100.00
67099;BME280;54288;53.046;5.668;2023-01-25T08:34:37;103612.38;;;0.30;100.00
67099;BME280;54288;53.046;5.668;2023-01-25T08:37:03;103615.28;;;0.35;100.00
67099;BME280;54288;53.046;5.668;2023-01-25T08:39:28;103617.94;;;0.36;100.00
67099;BME280;54288;53.046;5.668;2023-01-25T08:41:54;103606.84;;;0.37;100.00
67099;BME280;54288;53.046;5.668;2023-01-25T08:44:19;103610.31;;;0.38;100.00
67099;BME280;54288;53.046;5.668;2023-01-25T08:46:45;103595.75;;;0.38;100.00
67099;BME280;54288;53.046;5.668;2023-01-25T08:49:11;103601.88;;;0.40;100.00
67099;BME280;54288;53.046;5.668;2023-01-25T08:51:36;103601.09;;;0.41;100.00
67099;BME280;54288;53.046;5.668;2023-01-25T08:54:06;103600.28;;;0.42;100.00
67099;BME280;54288;53.046;5.668;2023-01-25T08:56:32;103593.06;;;0.37;100.00
67099;BME280;54288;53.046;5.668;2023-01-25T08:58:58;103584.63;;;0.39;100.00
67099;BME280;54288;53.046;5.668;2023-01-25T09:01:24;103595.94;;;0.41;100.00
67099;BME280;54288;53.046;5.668;2023-01-25T09:03:52;103586.13;;;0.36;100.00
67099;BME280;54288;53.046;5.668;2023-01-25T09:06:18;103585.22;;;0.35;100.00
67099;BME280;54288;53.046;5.668;2023-01-25T09:08:44;103592.25;;;0.38;100.00
67099;BME280;54288;53.046;5.668;2023-01-25T09:11:12;103581.25;;;0.40;100.00
67099;BME280;54288;53.046;5.668;2023-01-25T09:13:39;103586.00;;;0.47;100.00
67099;BME280;54288;53.046;5.668;2023-01-25T09:16:08;103578.97;;;0.45;100.00
67099;BME280;54288;53.046;5.668;2023-01-25T09:18:36;103580.66;;;0.44;100.00
67099;BME280;54288;53.046;5.668;2023-01-25T09:21:13;103574.22;;;0.38;100.00
67099;BME280;54288;53.046;5.668;2023-01-25T09:23:42;103572.66;;;0.40;100.00
67099;BME280;54288;53.046;5.668;2023-01-25T09:26:08;103575.22;;;0.40;100.00
67099;BME280;54288;53.046;5.668;2023-01-25T09:28:34;103583.84;;;0.40;100.00
67099;BME280;54288;53.046;5.668;2023-01-25T09:31:05;103582.16;;;0.41;100.00
67099;BME280;54288;53.046;5.668;2023-01-25T09:33:53;103577.28;;;0.45;100.00
67099;BME280;54288;53.046;5.668;2023-01-25T09:36:18;103565.00;;;0.41;100.00
67099;BME280;54288;53.046;5.668;2023-01-25T09:38:44;103566.78;;;0.42;100.00
67099;BME280;54288;53.046;5.668;2023-01-25T09:47:09;103556.25;;;0.52;100.00
67099;BME280;54288;53.046;5.668;2023-01-25T09:54:51;103542.50;;;0.52;100.00
67099;BME280;54288;53.046;5.668;2023-01-25T09:57:25;103534.84;;;0.53;100.00
67099;BME280;54288;53.046;5.668;2023-01-25T09:59:53;103532.63;;;0.59;100.00
67099;BME280;54288;53.046;5.668;2023-01-25T10:02:55;103531.34;;;0.66;100.00
67099;BME280;54288;53.046;5.668;2023-01-25T10:05:30;103520.16;;;0.65;100.00
67099;BME280;54288;53.046;5.668;2023-01-25T10:08:16;103515.97;;;0.67;100.00
67099;BME280;54288;53.046;5.668;2023-01-25T10:10:47;103513.56;;;0.70;100.00
67099;BME280;54288;53.046;5.668;2023-01-25T10:13:18;103511.19;;;0.73;100.00
67099;BME280;54288;53.046;5.668;2023-01-25T10:15:56;103508.03;;;0.77;100.00
67099;BME280;54288;53.046;5.668;2023-01-25T10:18:36;103508.19;;;0.80;100.00
67099;BME280;54288;53.046;5.668;2023-01-25T10:21:11;103500.28;;;0.77;100.00
67099;BME280;54288;53.046;5.668;2023-01-25T10:26:21;103478.50;;;0.87;100.00
67099;BME280;54288;53.046;5.668;2023-01-25T10:29:10;103473.34;;;0.87;100.00
67099;BME280;54288;53.046;5.668;2023-01-25T10:31:48;103471.31;;;0.96;100.00
67099;BME280;54288;53.046;5.668;2023-01-25T10:34:33;103472.78;;;1.05;100.00
67099;BME280;54288;53.046;5.668;2023-01-25T10:42:52;103452.91;;;1.19;100.00
67099;BME280;54288;53.046;5.668;2023-01-25T10:45:19;103442.94;;;1.25;100.00
67099;BME280;54288;53.046;5.668;2023-01-25T10:47:49;103443.25;;;1.29;100.00
67099;BME280;54288;53.046;5.668;2023-01-25T10:50:53;103441.63;;;1.31;100.00
67099;BME280;54288;53.046;5.668;2023-01-25T10:53:28;103435.66;;;1.32;100.00
67099;BME280;54288;53.046;5.668;2023-01-25T10:55:57;103433.16;;;1.34;100.00
67099;BME280;54288;53.046;5.668;2023-01-25T10:58:44;103428.25;;;1.38;100.00
67099;BME280;54288;53.046;5.668;2023-01-25T11:01:43;103426.75;;;1.42;100.00
67099;BME280;54288;53.046;5.668;2023-01-25T11:04:44;103415.00;;;1.47;100.00
67099;BME280;54288;53.046;5.668;2023-01-25T11:07:26;103405.09;;;1.54;100.00
67099;BME280;54288;53.046;5.668;2023-01-25T11:09:52;103404.38;;;1.57;100.00
67099;BME280;54288;53.046;5.668;2023-01-25T11:12:19;103404.56;;;1.60;100.00
67099;BME280;54288;53.046;5.668;2023-01-25T11:14:49;103400.56;;;1.65;100.00
67099;BME280;54288;53.046;5.668;2023-01-25T11:17:24;103391.91;;;1.64;100.00
67099;BME280;54288;53.046;5.668;2023-01-25T11:20:17;103384.25;;;1.66;100.00
67099;BME280;54288;53.046;5.668;2023-01-25T11:22:54;103372.56;;;1.72;100.00
67099;BME280;54288;53.046;5.668;2023-01-25T11:25:32;103378.97;;;1.79;100.00
67099;BME280;54288;53.046;5.668;2023-01-25T11:28:16;103362.75;;;1.81;100.00
67099;BME280;54288;53.046;5.668;2023-01-25T11:30:43;103360.31;;;1.84;100.00
67099;BME280;54288;53.046;5.668;2023-01-25T11:33:11;103348.72;;;1.92;100.00
67099;BME280;54288;53.046;5.668;2023-01-25T11:38:33;103330.16;;;1.99;100.00
67099;BME280;54288;53.046;5.668;2023-01-25T11:41:24;103322.56;;;2.02;100.00
67099;BME280;54288;53.046;5.668;2023-01-25T11:49:36;103304.88;;;2.10;100.00
67099;BME280;54288;53.046;5.668;2023-01-25T11:55:48;103295.19;;;2.06;100.00
67099;BME280;54288;53.046;5.668;2023-01-25T11:58:44;103287.69;;;2.10;100.00
67099;BME280;54288;53.046;5.668;2023-01-25T12:04:24;103277.66;;;2.16;100.00
67099;BME280;54288;53.046;5.668;2023-01-25T12:07:03;103270.63;;;2.14;100.00
67099;BME280;54288;53.046;5.668;2023-01-25T12:12:55;103266.81;;;2.23;100.00
67099;BME280;54288;53.046;5.668;2023-01-25T12:21:52;103246.97;;;2.22;100.00
67099;BME280;54288;53.046;5.668;2023-01-25T12:24:22;103240.34;;;2.27;100.00
67099;BME280;54288;53.046;5.668;2023-01-25T12:29:39;103217.28;;;2.32;100.00
67099;BME280;54288;53.046;5.668;2023-01-25T12:32:19;103216.97;;;2.26;100.00
67099;BME280;54288;53.046;5.668;2023-01-25T12:37:38;103197.50;;;2.32;100.00
67099;BME280;54288;53.046;5.668;2023-01-25T12:40:16;103196.25;;;2.42;100.00
67099;BME280;54288;53.046;5.668;2023-01-25T12:42:52;103196.03;;;2.37;100.00
67099;BME280;54288;53.046;5.668;2023-01-25T12:45:29;103191.75;;;2.38;100.00
67099;BME280;54288;53.046;5.668;2023-01-25T12:50:54;103185.53;;;2.34;100.00
67099;BME280;54288;53.046;5.668;2023-01-25T12:53:22;103180.53;;;2.37;100.00
67099;BME280;54288;53.046;5.668;2023-01-25T12:55:50;103179.72;;;2.38;100.00
67099;BME280;54288;53.046;5.668;2023-01-25T13:01:34;103176.47;;;2.42;100.00
67099;BME280;54288;53.046;5.668;2023-01-25T13:12:13;103146.75;;;2.34;100.00
67099;BME280;54288;53.046;5.668;2023-01-25T13:14:40;103159.13;;;2.40;100.00
67099;BME280;54288;53.046;5.668;2023-01-25T13:17:31;103161.91;;;2.44;100.00
67099;BME280;54288;53.046;5.668;2023-01-25T13:19:58;103153.44;;;2.47;100.00
67099;BME280;54288;53.046;5.668;2023-01-25T13:25:17;103153.25;;;2.44;100.00
67099;BME280;54288;53.046;5.668;2023-01-25T13:27:43;103138.44;;;2.40;100.00
67099;BME280;54288;53.046;5.668;2023-01-25T13:35:38;103133.81;;;2.34;100.00
67099;BME280;54288;53.046;5.668;2023-01-25T13:38:27;103125.25;;;2.35;100.00
67099;BME280;54288;53.046;5.668;2023-01-25T13:41:06;103115.22;;;2.41;100.00
67099;BME280;54288;53.046;5.668;2023-01-25T13:43:32;103115.28;;;2.43;100.00
67099;BME280;54288;53.046;5.668;2023-01-25T13:45:58;103104.56;;;2.35;100.00
67099;BME280;54288;53.046;5.668;2023-01-25T13:48:26;103106.28;;;2.35;100.00
67099;BME280;54288;53.046;5.668;2023-01-25T13:51:02;103103.63;;;2.33;100.00
67099;BME280;54288;53.046;5.668;2023-01-25T13:53:28;103108.28;;;2.40;100.00
67099;BME280;54288;53.046;5.668;2023-01-25T13:55:56;103102.69;;;2.31;100.00
67099;BME280;54288;53.046;5.668;2023-01-25T13:58:34;103109.00;;;2.38;100.00
67099;BME280;54288;53.046;5.668;2023-01-25T14:01:16;103103.84;;;2.38;100.00
67099;BME280;54288;53.046;5.668;2023-01-25T14:03:43;103106.38;;;2.36;100.00
67099;BME280;54288;53.046;5.668;2023-01-25T14:06:22;103101.03;;;2.33;100.00
67099;BME280;54288;53.046;5.668;2023-01-25T14:08:51;103089.59;;;2.28;100.00
67099;BME280;54288;53.046;5.668;2023-01-25T14:11:22;103083.69;;;2.31;100.00
67099;BME280;54288;53.046;5.668;2023-01-25T14:14:13;103072.09;;;2.23;100.00
67099;BME280;54288;53.046;5.668;2023-01-25T14:16:40;103067.97;;;2.26;100.00
67099;BME280;54288;53.046;5.668;2023-01-25T14:19:26;103059.75;;;2.35;100.00
67099;BME280;54288;53.046;5.668;2023-01-25T14:24:39;103047.28;;;2.26;100.00
67099;BME280;54288;53.046;5.668;2023-01-25T14:27:05;103039.59;;;2.28;100.00
67099;BME280;54288;53.046;5.668;2023-01-25T14:29:36;103029.19;;;2.26;100.00